Time;durP1;ratioP1;P1;durP2;ratioP2;P2;SDS_P1;SDS_P2;PMS_P1;PMS_P2;Temp;Humidity;BMP_temperature;BMP_pressure;BME280_temperature;BME280_humidity;BME280_pressure;Samples;Min_cycle;Max_cycle;Signal;HPM_P1;HPM_P2
2023/03/16 00:00:23;;;;;;;13.38;7.53;;;;;;;3.03;93.61;101808.50;4954333;28;20031;-91
2023/03/16 00:02:49;;;;;;;12.20;6.78;;;;;;;3.06;94.07;101805.16;4940641;28;20022;-91
2023/03/16 00:05:14;;;;;;;11.98;6.65;;;;;;;3.09;93.53;101800.09;4958877;28;20034;-92
2023/03/16 00:07:41;;;;;;;10.60;6.47;;;;;;;3.12;94.02;101802.72;4959539;28;20807;-92
2023/03/16 00:10:07;;;;;;;13.13;6.82;;;;;;;3.17;94.60;101793.44;4957760;28;20047;-91
2023/03/16 00:12:35;;;;;;;12.75;7.00;;;;;;;3.18;93.94;101790.94;4947630;28;20027;-92
2023/03/16 00:15:00;;;;;;;12.60;6.78;;;;;;;3.17;94.57;101781.50;4958329;28;20031;-92
2023/03/16 00:17:26;;;;;;;13.90;7.22;;;;;;;3.15;94.63;101778.03;4972796;28;20398;-92
2023/03/16 00:19:54;;;;;;;13.43;6.88;;;;;;;3.31;94.45;101806.56;4959180;28;20035;-91
2023/03/16 00:22:24;;;;;;;11.30;6.45;;;;;;;3.25;93.91;101791.06;4944815;28;20031;-91
2023/03/16 00:24:51;;;;;;;12.43;6.57;;;;;;;3.24;93.59;101790.19;4959275;28;20297;-91
2023/03/16 00:27:17;;;;;;;11.55;6.75;;;;;;;3.33;93.32;101789.53;4973570;28;20031;-91
2023/03/16 00:29:45;;;;;;;13.75;6.53;;;;;;;3.23;93.32;101773.09;4957774;28;20031;-92
2023/03/16 00:32:15;;;;;;;9.88;6.45;;;;;;;3.31;94.94;101779.22;4946206;28;20026;-91
2023/03/16 00:34:41;;;;;;;12.80;6.70;;;;;;;3.28;93.86;101771.47;4956323;28;20085;-91
2023/03/16 00:37:07;;;;;;;13.55;6.70;;;;;;;3.29;93.57;101778.31;4958554;28;20398;-92
2023/03/16 00:39:34;;;;;;;11.10;6.47;;;;;;;3.28;93.75;101765.47;4957902;28;20475;-91
2023/03/16 00:42:03;;;;;;;11.20;6.03;;;;;;;3.35;94.08;101773.34;4958305;28;20081;-91
2023/03/16 00:44:28;;;;;;;12.35;6.70;;;;;;;3.31;94.29;101761.31;4972776;28;20192;-91
2023/03/16 00:46:54;;;;;;;11.98;6.38;;;;;;;3.29;93.53;101747.59;4944785;28;20030;-92
2023/03/16 00:49:21;;;;;;;12.30;7.03;;;;;;;3.43;94.54;101770.94;4958463;28;20030;-92
2023/03/16 00:51:46;;;;;;;12.15;6.55;;;;;;;3.37;94.89;101753.75;4955855;28;20163;-91
2023/03/16 00:54:12;;;;;;;12.93;6.88;;;;;;;3.45;94.57;101759.03;4954860;28;20136;-91
2023/03/16 00:56:37;;;;;;;11.48;6.60;;;;;;;3.41;93.91;101741.88;4938960;28;20528;-91
2023/03/16 00:59:04;;;;;;;13.27;6.53;;;;;;;3.43;93.65;101748.72;4955495;28;20035;-91
2023/03/16 01:01:31;;;;;;;15.95;6.80;;;;;;;3.39;94.02;101733.28;4937531;28;20034;-91
2023/03/16 01:04:00;;;;;;;12.48;6.47;;;;;;;3.47;94.84;101747.97;4956964;28;20328;-91
2023/03/16 01:06:26;;;;;;;12.57;6.43;;;;;;;3.49;95.00;101751.41;4957781;28;20026;-92
2023/03/16 01:08:51;;;;;;;12.40;7.10;;;;;;;3.43;93.79;101717.97;4940073;28;20675;-92
2023/03/16 01:11:21;;;;;;;9.82;6.18;;;;;;;3.55;94.11;101735.28;4958305;28;20035;-92
2023/03/16 01:13:48;;;;;;;14.20;6.68;;;;;;;3.52;93.72;101727.56;4956779;28;20118;-91
2023/03/16 01:16:21;;;;;;;10.15;6.18;;;;;;;3.43;94.53;101710.28;4957783;28;20164;-91
2023/03/16 01:18:47;;;;;;;11.95;6.65;;;;;;;3.53;94.27;101727.59;4957012;28;20035;-91
2023/03/16 01:21:12;;;;;;;12.75;7.03;;;;;;;3.52;93.52;101720.72;4938773;28;20030;-91
2023/03/16 01:23:39;;;;;;;11.55;6.63;;;;;;;3.41;93.56;101699.13;4956557;28;20038;-91
2023/03/16 01:26:07;;;;;;;12.77;6.90;;;;;;;3.45;93.72;101710.31;4957458;28;20364;-92
2023/03/16 01:28:33;;;;;;;11.98;6.78;;;;;;;3.37;93.60;101704.19;4956897;28;20042;-91
2023/03/16 01:31:02;;;;;;;11.60;6.18;;;;;;;3.29;93.86;101692.91;4957587;28;20531;-91
2023/03/16 01:33:28;;;;;;;12.20;6.28;;;;;;;3.42;93.83;101711.13;4953737;28;20035;-91
2023/03/16 01:36:00;;;;;;;11.88;6.53;;;;;;;3.31;94.20;101689.56;4948657;28;20295;-91
2023/03/16 01:38:25;;;;;;;10.07;6.40;;;;;;;3.39;94.75;101705.97;4942628;28;20031;-91
2023/03/16 01:40:52;;;;;;;11.90;6.40;;;;;;;3.41;94.07;101695.75;4962536;28;20023;-91
2023/03/16 01:43:19;;;;;;;13.02;6.70;;;;;;;3.39;94.34;101699.97;4959731;28;20035;-92
2023/03/16 01:46:01;;;;;;;12.35;6.47;;;;;;;3.48;95.05;101700.16;4961291;28;20066;-89
2023/03/16 01:48:28;;;;;;;11.90;6.35;;;;;;;3.34;94.24;101678.53;4960602;28;20030;-91
2023/03/16 01:50:55;;;;;;;12.85;6.38;;;;;;;3.43;94.11;101686.34;4975140;28;20591;-92
2023/03/16 01:53:23;;;;;;;12.63;6.50;;;;;;;3.46;96.07;101691.56;4960611;28;20054;-91
2023/03/16 01:55:50;;;;;;;12.60;6.20;;;;;;;3.46;94.50;101676.19;4960899;28;20211;-92
2023/03/16 01:58:19;;;;;;;12.77;6.65;;;;;;;3.56;94.77;101686.63;4961369;28;20023;-92
2023/03/16 02:00:44;;;;;;;14.15;6.78;;;;;;;3.56;94.45;101686.63;4959938;28;20031;-91
2023/03/16 02:03:18;;;;;;;11.13;6.28;;;;;;;3.63;94.08;101679.91;4974061;28;20553;-91
2023/03/16 02:05:51;;;;;;;11.37;6.37;;;;;;;3.62;93.76;101672.22;4960542;28;20074;-91
2023/03/16 02:08:18;;;;;;;12.13;6.15;;;;;;;3.61;94.95;101663.66;4959274;28;20484;-91
2023/03/16 02:10:45;;;;;;;11.95;6.57;;;;;;;3.68;94.03;101667.19;4958145;28;20031;-92
2023/03/16 02:13:11;;;;;;;12.75;6.07;;;;;;;3.69;94.04;101659.50;4959168;28;20085;-91
2023/03/16 02:15:39;;;;;;;12.80;6.68;;;;;;;3.81;94.17;101670.00;4960202;28;20042;-92
2023/03/16 02:18:06;;;;;;;11.50;6.43;;;;;;;3.74;94.56;101652.78;4974483;28;20554;-92
2023/03/16 02:20:35;;;;;;;12.40;6.28;;;;;;;3.84;93.62;101671.72;4941487;28;20039;-91
2023/03/16 02:23:01;;;;;;;11.98;6.38;;;;;;;3.71;94.05;101641.59;4959428;28;20038;-92
2023/03/16 02:25:52;;;;;;;11.95;6.40;;;;;;;3.81;93.80;101652.03;4961395;28;20074;-91
2023/03/16 02:28:20;;;;;;;12.10;5.88;;;;;;;3.86;93.76;101657.22;4961102;28;20035;-91
2023/03/16 02:30:46;;;;;;;11.00;6.15;;;;;;;3.79;94.12;101645.16;4959471;28;20035;-91
2023/03/16 02:33:13;;;;;;;12.48;6.32;;;;;;;3.73;94.99;101643.34;4948249;28;20037;-91
2023/03/16 02:35:38;;;;;;;10.65;6.32;;;;;;;3.81;95.48;101638.34;4959304;28;20047;-91
2023/03/16 02:38:04;;;;;;;12.07;6.18;;;;;;;3.91;95.96;101668.41;4959637;28;20033;-92
2023/03/16 02:40:32;;;;;;;12.45;6.45;;;;;;;3.76;96.44;101637.38;4960382;28;20022;-91
2023/03/16 02:43:03;;;;;;;13.38;6.57;;;;;;;3.79;97.90;101648.56;4958872;28;20062;-91
2023/03/16 02:45:42;;;;;;;12.13;6.10;;;;;;;3.80;97.83;101660.56;4960215;28;20023;-91
2023/03/16 02:48:22;;;;;;;13.23;6.50;;;;;;;3.78;99.57;101671.63;4960097;28;20522;-91
2023/03/16 02:50:51;;;;;;;12.20;6.28;;;;;;;3.63;98.65;101651.69;4944598;28;20027;-91
2023/03/16 02:53:16;;;;;;;13.70;6.32;;;;;;;3.70;99.15;101671.47;4958588;28;20031;-91
2023/03/16 02:55:42;;;;;;;13.02;6.65;;;;;;;3.63;100.00;101656.81;4957792;28;20041;-90
2023/03/16 02:58:07;;;;;;;11.60;6.05;;;;;;;3.52;100.00;101642.97;4957874;28;20366;-91
2023/03/16 03:00:33;;;;;;;14.75;6.32;;;;;;;3.62;100.00;101660.22;4958183;28;20463;-91
2023/03/16 03:02:58;;;;;;;11.40;5.95;;;;;;;3.59;100.00;101655.06;4960857;28;20027;-91
2023/03/16 03:05:24;;;;;;;11.00;6.28;;;;;;;3.58;100.00;101653.31;4958910;28;20039;-91
2023/03/16 03:07:50;;;;;;;12.07;5.78;;;;;;;3.57;100.00;101641.34;4957534;28;20042;-92
2023/03/16 03:10:16;;;;;;;12.40;6.32;;;;;;;3.49;99.95;101627.53;4958877;28;20807;-92
2023/03/16 03:12:41;;;;;;;12.25;6.00;;;;;;;3.65;100.00;101651.72;4960440;28;20027;-92
2023/03/16 03:15:07;;;;;;;9.70;5.50;;;;;;;3.59;100.00;101644.81;4961334;28;20039;-91
2023/03/16 03:17:33;;;;;;;14.20;6.60;;;;;;;3.57;100.00;101639.66;4960319;28;20027;-92
2023/03/16 03:20:01;;;;;;;10.07;5.75;;;;;;;3.56;100.00;101639.63;4958507;28;20019;-91
2023/03/16 03:22:26;;;;;;;12.45;6.43;;;;;;;3.56;99.79;101631.94;4945936;28;20034;-91
2023/03/16 03:24:52;;;;;;;11.00;6.18;;;;;;;3.55;99.75;101625.94;4958326;28;20462;-92
2023/03/16 03:27:18;;;;;;;11.07;5.93;;;;;;;3.66;99.43;101643.22;4959764;28;20510;-92
2023/03/16 03:29:44;;;;;;;12.57;5.70;;;;;;;3.63;99.37;101630.31;4958516;28;20026;-92
2023/03/16 03:32:10;;;;;;;12.60;6.18;;;;;;;3.57;100.00;101616.59;4958722;28;20906;-92
2023/03/16 03:34:36;;;;;;;11.40;5.90;;;;;;;3.53;98.95;101613.94;4956447;28;20096;-91
2023/03/16 03:37:01;;;;;;;12.13;6.07;;;;;;;3.63;99.32;101626.06;4957682;28;20042;-91
2023/03/16 03:39:27;;;;;;;10.10;5.82;;;;;;;3.61;100.00;101619.22;4958789;28;20536;-90
2023/03/16 03:41:53;;;;;;;10.48;5.72;;;;;;;3.55;99.69;101614.81;4959140;28;20027;-91
2023/03/16 03:44:20;;;;;;;13.80;6.45;;;;;;;3.48;100.00;101590.78;4956537;28;20038;-91
2023/03/16 03:46:46;;;;;;;11.65;5.90;;;;;;;3.51;99.93;101606.22;4959280;28;20416;-90
2023/03/16 03:49:15;;;;;;;12.15;5.85;;;;;;;3.62;99.81;101624.34;4960410;28;20065;-91
2023/03/16 03:51:40;;;;;;;12.50;5.95;;;;;;;3.61;99.83;101611.53;4956818;28;20031;-91
2023/03/16 03:54:07;;;;;;;9.77;5.40;;;;;;;3.63;100.00;101620.94;4946681;28;20041;-91
2023/03/16 03:56:32;;;;;;;9.73;5.40;;;;;;;3.56;99.58;101604.59;4957023;28;21153;-91
2023/03/16 03:58:57;;;;;;;11.50;5.85;;;;;;;3.61;99.37;101621.78;4957487;28;20034;-91
2023/03/16 04:01:23;;;;;;;10.35;5.72;;;;;;;3.62;99.47;101611.53;4940409;28;20145;-91
2023/03/16 04:03:49;;;;;;;9.52;5.50;;;;;;;3.55;100.00;101595.19;4946373;28;20534;-91
2023/03/16 04:06:40;;;;;;;9.93;5.72;;;;;;;3.66;99.42;101609.88;4957119;28;20528;-91
2023/03/16 04:09:07;;;;;;;10.88;5.78;;;;;;;3.66;98.76;101607.31;4971177;28;20035;-91
2023/03/16 04:11:32;;;;;;;12.75;5.40;;;;;;;3.57;98.55;101590.94;4957741;28;20114;-91
2023/03/16 04:13:58;;;;;;;11.00;5.80;;;;;;;3.65;99.76;101603.91;4958684;28;20148;-91
2023/03/16 04:16:25;;;;;;;9.77;5.50;;;;;;;3.55;100.00;101596.88;4957618;28;20030;-91
2023/03/16 04:18:54;;;;;;;13.38;5.72;;;;;;;3.55;99.12;101595.19;4960038;28;20250;-91
2023/03/16 04:21:21;;;;;;;9.60;5.50;;;;;;;3.65;99.20;101608.16;4955026;28;20019;-91
2023/03/16 04:23:48;;;;;;;10.32;5.28;;;;;;;3.66;99.52;101605.63;4959078;28;20106;-91
2023/03/16 04:26:13;;;;;;;14.57;5.25;;;;;;;3.63;99.03;101600.44;4958645;28;20441;-91
2023/03/16 04:28:39;;;;;;;10.80;5.45;;;;;;;3.64;99.50;101597.03;4958635;28;20472;-91
2023/03/16 04:31:07;;;;;;;9.85;5.38;;;;;;;3.51;99.22;101577.16;4958487;28;20113;-91
2023/03/16 04:33:37;;;;;;;10.43;5.30;;;;;;;3.64;99.34;101593.59;4946703;28;20479;-90
2023/03/16 04:36:04;;;;;;;14.13;5.40;;;;;;;3.67;99.38;101591.09;4955632;28;20408;-91
2023/03/16 04:38:34;;;;;;;10.30;4.85;;;;;;;3.65;99.30;101585.94;4958966;28;20066;-91
2023/03/16 04:41:01;;;;;;;10.82;5.38;;;;;;;3.67;98.90;101591.09;4956783;28;20035;-91
2023/03/16 04:43:26;;;;;;;8.80;5.15;;;;;;;3.65;98.66;101580.81;4958884;28;20475;-90
2023/03/16 04:45:52;;;;;;;13.70;5.60;;;;;;;3.74;98.77;101598.06;4940538;28;20037;-91
2023/03/16 04:48:18;;;;;;;9.85;5.20;;;;;;;3.71;98.04;101590.31;4957778;28;20646;-91
2023/03/16 04:50:43;;;;;;;9.70;5.50;;;;;;;3.70;98.04;101586.00;4956966;28;20042;-91
2023/03/16 04:53:09;;;;;;;10.40;5.40;;;;;;;3.70;98.17;101579.19;4960866;28;20031;-90
2023/03/16 04:55:34;;;;;;;9.82;5.60;;;;;;;3.78;98.05;101587.00;4948405;28;20497;-91
2023/03/16 04:58:00;;;;;;;8.98;5.20;;;;;;;3.71;97.81;101570.66;4957985;28;20038;-90
2023/03/16 05:00:28;;;;;;;8.90;4.97;;;;;;;3.78;97.62;101587.00;4943251;28;20483;-91
2023/03/16 05:02:54;;;;;;;11.43;5.65;;;;;;;3.76;98.04;101573.28;4960490;28;20037;-91
2023/03/16 05:05:20;;;;;;;10.05;5.63;;;;;;;3.76;98.09;101575.84;4959116;28;20402;-91
2023/03/16 05:07:46;;;;;;;11.18;5.47;;;;;;;3.76;98.65;101569.03;4946364;28;20066;-91
2023/03/16 05:10:14;;;;;;;11.07;5.32;;;;;;;3.70;97.81;101555.25;4975973;28;20086;-91
2023/03/16 05:12:40;;;;;;;13.85;5.40;;;;;;;3.83;99.15;101580.25;4960473;28;20463;-90
2023/03/16 05:15:05;;;;;;;11.27;5.25;;;;;;;3.84;100.00;101580.28;4960400;28;20636;-90
2023/03/16 05:17:32;;;;;;;12.85;5.70;;;;;;;3.82;99.07;101568.28;4960122;28;20038;-91
2023/03/16 05:19:57;;;;;;;10.30;5.18;;;;;;;3.82;99.93;101563.16;4960182;28;20065;-91
2023/03/16 05:22:23;;;;;;;9.45;5.38;;;;;;;3.79;99.68;101557.97;4961703;28;20038;-90
2023/03/16 05:24:48;;;;;;;9.95;5.22;;;;;;;3.78;99.11;101554.53;4944819;28;20034;-91
2023/03/16 05:27:14;;;;;;;11.48;5.47;;;;;;;3.80;99.07;101545.19;4960736;28;20042;-91
2023/03/16 05:29:39;;;;;;;10.10;5.45;;;;;;;3.90;98.88;101562.41;4960118;28;20591;-91
2023/03/16 05:32:05;;;;;;;10.77;5.28;;;;;;;3.82;98.77;101543.47;4956636;28;20041;-91
2023/03/16 05:34:31;;;;;;;8.82;5.28;;;;;;;3.81;98.39;101554.59;4948886;28;20042;-90
2023/03/16 05:36:57;;;;;;;10.32;4.85;;;;;;;3.93;98.64;101574.44;4961639;28;20027;-90
2023/03/16 05:39:23;;;;;;;8.80;4.88;;;;;;;3.81;98.88;101539.22;4949698;28;20022;-91
2023/03/16 05:41:48;;;;;;;11.63;5.22;;;;;;;3.90;99.88;101544.47;4960828;28;20034;-91
2023/03/16 05:44:14;;;;;;;9.88;4.90;;;;;;;3.94;99.51;101555.66;4973547;28;20027;-91
2023/03/16 05:46:39;;;;;;;10.23;5.07;;;;;;;3.87;99.71;101539.31;4958983;28;20043;-91
2023/03/16 05:49:05;;;;;;;10.18;5.18;;;;;;;3.96;99.39;101554.81;4958101;28;20023;-91
2023/03/16 05:51:31;;;;;;;9.77;5.18;;;;;;;3.91;99.47;101540.19;4959277;28;20034;-91
2023/03/16 05:53:56;;;;;;;8.70;5.10;;;;;;;3.91;99.30;101535.94;4959223;28;20110;-91
2023/03/16 05:56:27;;;;;;;10.40;5.32;;;;;;;3.87;100.00;101531.63;4962746;28;20035;-91
2023/03/16 05:58:55;;;;;;;9.43;5.28;;;;;;;3.96;99.45;101536.00;4959967;28;20035;-92
2023/03/16 06:01:22;;;;;;;9.90;5.00;;;;;;;3.94;99.95;101533.44;4947097;28;20114;-91
2023/03/16 06:03:48;;;;;;;9.15;4.93;;;;;;;4.00;99.55;101542.91;4940372;28;20030;-91
2023/03/16 06:06:24;;;;;;;10.27;5.22;;;;;;;3.89;99.18;101518.81;4962265;28;20141;-93
2023/03/16 06:08:50;;;;;;;10.63;5.28;;;;;;;3.93;99.39;101531.69;4975441;28;20064;-92
2023/03/16 06:11:18;;;;;;;8.60;5.03;;;;;;;3.94;99.74;101533.44;4947760;28;20054;-92
2023/03/16 06:13:44;;;;;;;12.15;5.40;;;;;;;4.01;100.00;101547.19;4959332;28;20031;-91
2023/03/16 06:16:12;;;;;;;9.80;4.70;;;;;;;3.92;100.00;101531.66;4942512;28;20435;-92
2023/03/16 06:18:38;;;;;;;10.27;4.68;;;;;;;3.89;100.00;101522.22;4942340;28;20029;-92
2023/03/16 06:21:06;;;;;;;9.63;5.40;;;;;;;3.94;100.00;101530.00;4955682;28;20031;-92
2023/03/16 06:23:32;;;;;;;11.43;4.93;;;;;;;4.09;99.86;101547.31;4959540;28;20554;-91
2023/03/16 06:25:59;;;;;;;10.93;5.20;;;;;;;4.04;99.73;101530.97;4959223;28;20487;-90
2023/03/16 06:28:24;;;;;;;9.80;5.28;;;;;;;4.04;99.17;101525.84;4960011;28;20502;-89
2023/03/16 06:30:57;;;;;;;9.43;5.00;;;;;;;4.06;99.02;101529.28;4941408;28;20027;-90
2023/03/16 06:33:23;;;;;;;9.80;4.72;;;;;;;4.22;98.91;101547.50;4941535;28;20506;-89
2023/03/16 06:35:50;;;;;;;9.98;5.20;;;;;;;4.27;98.66;101544.97;4959409;28;20058;-90
2023/03/16 06:38:16;;;;;;;10.48;4.90;;;;;;;4.30;98.60;101529.59;4957516;28;20023;-90
2023/03/16 06:40:41;;;;;;;10.32;4.80;;;;;;;4.35;98.45;101533.13;4951896;28;20030;-91
2023/03/16 06:43:07;;;;;;;10.13;5.25;;;;;;;4.41;100.00;101540.03;4944794;28;20559;-90
2023/03/16 06:45:33;;;;;;;9.75;5.07;;;;;;;4.40;100.00;101531.47;4959252;28;20074;-91
2023/03/16 06:47:59;;;;;;;10.82;5.35;;;;;;;4.42;100.00;101534.91;4942986;28;20027;-90
2023/03/16 06:50:24;;;;;;;11.25;5.68;;;;;;;4.34;100.00;101521.13;4940356;28;20065;-90
2023/03/16 06:52:50;;;;;;;10.93;5.50;;;;;;;4.44;100.00;101542.63;4956195;28;20111;-90
2023/03/16 06:55:16;;;;;;;11.82;5.25;;;;;;;4.47;100.00;101546.09;4957709;28;20735;-90
2023/03/16 06:57:41;;;;;;;15.05;5.90;;;;;;;4.42;100.00;101534.06;4958278;28;20038;-90
2023/03/16 07:00:10;;;;;;;9.40;5.00;;;;;;;4.41;100.00;101529.75;4941178;28;20049;-91
2023/03/16 07:02:38;;;;;;;10.48;5.28;;;;;;;4.44;100.00;101522.94;4973776;28;20030;-90
2023/03/16 07:05:04;;;;;;;10.90;5.40;;;;;;;4.47;100.00;101533.25;4971932;28;20147;-90
2023/03/16 07:07:30;;;;;;;11.82;5.05;;;;;;;4.40;100.00;101512.63;4943031;28;20030;-90
2023/03/16 07:09:55;;;;;;;9.98;5.15;;;;;;;4.45;100.00;101519.53;4956974;28;20038;-91
2023/03/16 07:12:21;;;;;;;9.13;4.90;;;;;;;4.48;100.00;101527.28;4957956;28;20022;-90
2023/03/16 07:14:46;;;;;;;10.93;5.57;;;;;;;4.54;100.00;101524.78;4958573;28;21614;-90
2023/03/16 07:17:12;;;;;;;10.65;5.60;;;;;;;4.52;100.00;101497.38;4940253;28;20022;-90
2023/03/16 07:19:37;;;;;;;12.95;5.63;;;;;;;4.80;100.00;101526.78;4960051;28;20053;-90
2023/03/16 07:22:03;;;;;;;11.80;5.30;;;;;;;4.87;100.00;101508.03;4958861;28;20042;-90
2023/03/16 07:24:28;;;;;;;13.00;5.72;;;;;;;4.98;100.00;101512.41;4956770;28;20080;-90
2023/03/16 07:26:54;;;;;;;11.30;5.63;;;;;;;5.15;100.00;101510.03;4959258;28;20499;-90
2023/03/16 07:29:19;;;;;;;11.02;5.07;;;;;;;5.18;100.00;101515.19;4959323;28;20275;-91
2023/03/16 07:31:44;;;;;;;11.07;5.60;;;;;;;5.30;100.00;101511.88;4943119;28;20031;-90
2023/03/16 07:34:10;;;;;;;13.55;6.00;;;;;;;5.30;100.00;101499.03;4956797;28;20530;-90
2023/03/16 07:36:38;;;;;;;11.13;5.72;;;;;;;5.35;100.00;101510.19;4941259;28;20041;-90
2023/03/16 07:39:05;;;;;;;11.23;5.82;;;;;;;5.33;99.93;101497.31;4958407;28;20039;-90
2023/03/16 07:41:30;;;;;;;10.38;5.72;;;;;;;5.55;100.00;101517.22;4970351;28;20019;-90
2023/03/16 07:43:57;;;;;;;13.13;5.70;;;;;;;5.49;100.00;101496.59;4971091;28;20049;-90
2023/03/16 07:46:26;;;;;;;11.82;5.95;;;;;;;5.54;99.65;101494.06;4956646;28;20027;-89
2023/03/16 07:48:51;;;;;;;11.73;5.68;;;;;;;5.65;100.00;101517.28;4956084;28;20116;-90
2023/03/16 07:51:17;;;;;;;12.15;5.72;;;;;;;5.61;99.32;101498.38;4957174;28;20500;-91
2023/03/16 07:53:45;;;;;;;10.77;5.47;;;;;;;5.66;97.66;101495.88;4957596;28;20106;-92
2023/03/16 07:56:13;;;;;;;11.38;5.22;;;;;;;5.60;97.64;101485.50;4941244;28;20034;-90
2023/03/16 07:58:40;;;;;;;10.02;5.55;;;;;;;5.79;96.46;101513.09;4958395;28;20065;-90
2023/03/16 08:01:10;;;;;;;11.48;5.40;;;;;;;5.75;97.91;101508.78;4973284;28;20034;-89
2023/03/16 08:03:36;;;;;;;12.57;5.75;;;;;;;5.77;98.57;101507.09;4945662;28;20966;-91
2023/03/16 08:06:04;;;;;;;11.10;5.43;;;;;;;5.81;96.55;101501.09;4958143;28;20061;-92
2023/03/16 08:08:30;;;;;;;12.77;5.60;;;;;;;5.85;98.21;101497.72;4958857;28;20071;-91
2023/03/16 08:10:56;;;;;;;11.63;5.90;;;;;;;5.91;98.75;101500.34;4956887;28;20061;-90
2023/03/16 08:13:21;;;;;;;10.85;5.28;;;;;;;5.99;99.35;101482.38;4956765;28;20035;-91
2023/03/16 08:15:49;;;;;;;12.32;5.65;;;;;;;6.06;96.30;101487.56;4959564;28;20023;-91
2023/03/16 08:18:14;;;;;;;11.05;5.20;;;;;;;6.16;96.82;101491.03;4940152;28;20035;-92
2023/03/16 08:20:40;;;;;;;11.30;5.05;;;;;;;6.21;94.32;101479.91;4940432;28;20035;-92
2023/03/16 08:23:06;;;;;;;10.20;4.72;;;;;;;6.37;91.51;101498.84;4969933;28;20084;-90
2023/03/16 08:25:40;;;;;;;10.65;5.00;;;;;;;6.59;92.54;101502.38;4958130;28;20584;-91
2023/03/16 08:28:07;;;;;;;7.63;4.60;;;;;;;6.66;91.23;101481.78;4957635;28;20058;-91
2023/03/16 08:30:34;;;;;;;10.80;4.75;;;;;;;6.95;87.38;101499.03;4940803;28;20073;-92
2023/03/16 08:33:02;;;;;;;11.93;5.03;;;;;;;6.90;86.57;101478.38;4940887;28;20034;-91
2023/03/16 08:35:28;;;;;;;9.90;4.80;;;;;;;7.00;89.56;101487.88;4958039;28;20047;-92
2023/03/16 08:37:55;;;;;;;12.52;5.03;;;;;;;7.10;87.22;101501.59;4960128;28;20440;-92
2023/03/16 08:41:02;;;;;;;13.90;5.00;;;;;;;7.17;87.95;101510.19;4957568;28;20018;-94
2023/03/16 08:43:28;;;;;;;10.48;4.15;;;;;;;7.07;86.01;101488.72;4949450;28;20049;-92
2023/03/16 08:45:55;;;;;;;9.38;4.28;;;;;;;7.21;85.41;101492.19;4961189;28;20023;-92
2023/03/16 08:48:21;;;;;;;9.82;4.47;;;;;;;7.38;85.06;101507.63;4947362;28;20027;-92
2023/03/16 08:50:48;;;;;;;9.45;4.78;;;;;;;7.37;85.75;101495.63;4942565;28;20073;-92
2023/03/16 08:53:14;;;;;;;7.80;4.57;;;;;;;7.35;86.17;101490.47;4959316;28;20077;-93
2023/03/16 08:55:40;;;;;;;9.68;4.32;;;;;;;7.53;83.65;101517.97;4958410;28;20106;-93
2023/03/16 08:58:07;;;;;;;8.85;3.85;;;;;;;7.65;83.25;101515.38;4957095;28;20054;-92
2023/03/16 09:00:34;;;;;;;8.75;4.70;;;;;;;7.64;83.27;101479.28;4959151;28;20061;-92
2023/03/16 09:03:01;;;;;;;10.55;4.28;;;;;;;7.84;81.40;101477.50;4959433;28;20023;-92
2023/03/16 09:05:27;;;;;;;7.32;4.00;;;;;;;7.86;80.48;101471.47;4957915;28;20089;-92
2023/03/16 09:07:52;;;;;;;8.32;4.20;;;;;;;7.98;79.90;101478.34;4958848;28;20844;-90
2023/03/16 09:10:21;;;;;;;9.90;4.07;;;;;;;8.02;79.62;101466.25;4959373;28;20023;-91
2023/03/16 09:12:48;;;;;;;7.68;3.90;;;;;;;8.10;81.26;101461.94;4956419;28;20028;-92
2023/03/16 09:15:14;;;;;;;8.43;4.10;;;;;;;8.17;79.21;101461.91;4957342;28;21013;-92
2023/03/16 09:17:40;;;;;;;7.50;4.28;;;;;;;8.35;80.86;101476.50;4959437;28;20059;-92
2023/03/16 09:20:09;;;;;;;7.00;3.88;;;;;;;8.31;78.55;101462.75;4947980;28;20035;-92
2023/03/16 09:22:56;;;;;;;8.98;3.70;;;;;;;8.40;77.84;101459.22;4957192;28;20034;-92
2023/03/16 09:25:22;;;;;;;7.60;4.00;;;;;;;8.52;77.85;101473.84;4956832;28;20050;-91
2023/03/16 09:27:47;;;;;;;9.07;3.75;;;;;;;8.50;76.19;101471.25;4957800;28;20478;-92
2023/03/16 09:30:18;;;;;;;6.88;3.80;;;;;;;8.49;79.07;101463.50;4958774;28;20058;-92
2023/03/16 09:32:47;;;;;;;7.28;3.95;;;;;;;8.77;77.97;101467.66;4972040;28;20052;-92
2023/03/16 09:35:21;;;;;;;8.60;4.10;;;;;;;8.93;78.51;101458.94;4973241;28;20061;-92
2023/03/16 09:37:46;;;;;;;8.15;3.88;;;;;;;9.26;77.63;101456.97;4955421;28;20029;-91
2023/03/16 09:40:23;;;;;;;5.85;3.70;;;;;;;9.61;75.69;101456.63;4957916;28;20034;-91
2023/03/16 09:43:08;;;;;;;6.88;4.10;;;;;;;10.13;74.40;101467.28;4957536;28;20033;-92
2023/03/16 09:45:40;;;;;;;8.35;4.20;;;;;;;10.39;71.53;101464.38;4956766;28;20031;-91
2023/03/16 09:48:09;;;;;;;7.47;3.95;;;;;;;10.42;68.33;101443.63;4958537;28;20376;-92
2023/03/16 09:50:47;;;;;;;6.50;3.90;;;;;;;10.33;66.75;101447.19;4956462;28;20038;-93
2023/03/16 09:53:30;;;;;;;6.15;3.40;;;;;;;10.33;68.90;101457.56;4957371;28;20034;-93
2023/03/16 09:56:09;;;;;;;10.13;3.92;;;;;;;10.26;68.18;101448.16;4960198;28;20478;-92
2023/03/16 09:58:35;;;;;;;11.32;4.45;;;;;;;10.32;68.44;101450.66;4962190;28;20098;-93
2023/03/16 10:01:15;;;;;;;6.82;3.88;;;;;;;10.46;72.11;101448.75;4960739;28;20053;-93
2023/03/16 10:04:07;;;;;;;8.63;3.80;;;;;;;10.73;70.63;101437.13;4960796;28;20471;-92
2023/03/16 10:06:44;;;;;;;6.40;3.67;;;;;;;11.02;69.22;101429.75;4947494;28;20078;-91
2023/03/16 10:09:30;;;;;;;8.88;4.07;;;;;;;11.29;66.84;101443.16;4960216;28;20039;-93
2023/03/16 10:12:02;;;;;;;6.78;4.00;;;;;;;11.34;67.78;101433.53;4960306;28;20057;-93
2023/03/16 10:14:56;;;;;;;7.22;3.70;;;;;;;11.18;66.46;101413.94;4961609;28;20491;-93
2023/03/16 10:17:45;;;;;;;6.88;3.60;;;;;;;11.02;68.31;101410.75;4947571;28;20578;-93
2023/03/16 10:20:16;;;;;;;7.35;3.80;;;;;;;10.95;68.49;101403.94;4959407;28;20031;-91
2023/03/16 10:22:46;;;;;;;8.50;4.00;;;;;;;11.13;68.31;101408.81;4959892;28;20065;-91
2023/03/16 10:25:18;;;;;;;8.02;3.65;;;;;;;11.35;66.71;101428.34;4948471;28;20035;-92
2023/03/16 10:27:45;;;;;;;7.25;3.50;;;;;;;11.21;67.27;101412.13;4960022;28;20039;-92
2023/03/16 10:30:27;;;;;;;8.50;3.75;;;;;;;11.19;66.40;101426.03;4959859;28;20467;-91
2023/03/16 10:32:56;;;;;;;7.30;3.70;;;;;;;11.09;66.66;101433.09;4937791;28;20023;-92
2023/03/16 10:35:47;;;;;;;6.28;3.55;;;;;;;11.07;66.81;101427.94;4958169;28;20051;-92
2023/03/16 10:38:55;;;;;;;6.38;3.42;;;;;;;10.95;69.73;101398.75;4959523;28;20082;-91
2023/03/16 10:41:27;;;;;;;6.10;3.47;;;;;;;10.98;66.19;101396.97;4921363;28;20105;-92
2023/03/16 10:44:22;;;;;;;7.28;3.30;;;;;;;11.18;66.28;101416.53;4949829;28;20183;-93
2023/03/16 10:47:04;;;;;;;6.93;3.65;;;;;;;11.29;68.64;101420.66;4958883;28;20585;-93
2023/03/16 10:49:47;;;;;;;6.50;3.42;;;;;;;11.38;68.21;101410.13;4957801;28;20059;-92
2023/03/16 10:52:41;;;;;;;6.00;3.30;;;;;;;11.49;68.71;101399.53;4945254;28;20023;-92
2023/03/16 10:55:15;;;;;;;8.18;3.70;;;;;;;11.52;65.97;101383.91;4946756;28;20815;-92
2023/03/16 10:57:55;;;;;;;;;;;;;;;11.73;69.94;101399.06;4944518;28;20042;-92
2023/03/16 11:00:44;;;;;;;4.32;2.75;;;;;;;11.84;64.44;101399.75;4976253;28;20848;-91
2023/03/16 11:03:37;;;;;;;5.82;2.95;;;;;;;11.83;62.31;101377.25;4959224;28;20194;-92
2023/03/16 11:06:15;;;;;;;6.65;3.00;;;;;;;11.91;62.19;101378.84;4943406;28;20741;-92
2023/03/16 11:08:53;;;;;;;6.43;3.13;;;;;;;12.19;62.40;101385.16;4976205;28;20031;-92
2023/03/16 11:11:31;;;;;;;7.07;3.00;;;;;;;12.23;58.79;101358.22;4957430;28;20731;-92
2023/03/16 11:14:03;;;;;;;7.28;2.85;;;;;;;12.54;60.64;101382.63;4960021;28;20026;-92
2023/03/16 11:16:47;;;;;;;7.75;3.00;;;;;;;12.77;61.50;101381.22;4958134;28;20030;-91
2023/03/16 11:19:45;;;;;;;6.78;2.63;;;;;;;12.82;61.56;101354.22;4974709;28;20039;-92
2023/03/16 11:22:19;;;;;;;6.07;3.15;;;;;;;12.94;57.37;101346.09;4885405;28;20848;-92
2023/03/16 11:28:29;;;;;;;5.45;2.70;;;;;;;13.41;58.91;101355.31;4916814;29;20040;-93
2023/03/16 11:31:23;;;;;;;7.50;3.22;;;;;;;13.50;60.29;101345.53;4922624;29;20527;-91
2023/03/16 11:34:06;;;;;;;5.57;2.78;;;;;;;13.56;58.26;101348.81;4899980;29;20035;-92
2023/03/16 11:36:52;;;;;;;7.53;3.00;;;;;;;13.64;57.56;101338.19;4919527;29;20036;-93
2023/03/16 11:40:13;;;;;;;5.70;2.97;;;;;;;13.74;56.96;101337.00;4921214;29;20055;-92